Briefing drone pour Saint-didier-en-velay

Rechercher une autre localisation

Conditions de vol :


Nous sommes le : Dimanche 24 janvier 2021
Il est 05:02 UTC (06:02 LT)

Lever de soleil : 06:45 UTC (07:45 LT)
Coucher de soleil : 17:04 UTC (18:04 LT)

Météo

L'essentiel des conditions de vol

VIGILANCE MÉTÉO FRANCE - Haute-Loire (43)
Vigilance Jaune : Neige-verglas
CARTE TEMSI
CARTES DES FRONTS
METAR de LFMH
LFMH 240430Z AUTO 34005KT 310V010 9999 OVC031 02/M00 Q1002

Date d'émission: 24/01/2021
Heure d'émission: 04:30 UTC
Vent: 340° (variable du 310° au 010°) pour 5 KT (9 km/h)
Visibilité horizontale: > 10 km
Plafond :
- Couvert à 3100ft (945m)
Température: 2 °C
Point de rosée: 0 °C
Humidité: 87%
Pression (QNH): 1002 hPa
TAF de LFMH
AMD AMD LFMH 232005Z 2320/2418 CNL

Conditions prévues :

Heure d'émission : Bulletin éffectué le 23 à 20:00 UTC
Prévision : Valide du 23 a 20:00 UTC au 24 a 18:00 UTC
Nuages : à 0ft (0 m)
WEBCAM POUR SAINT-DIDIER-EN-VELAY

Réglementation

Voler en sécurité

CARTES AERONAUTIQUE 1/500.000
CARTES VAC (LFMH)
SUP AIP




Chargement des AIP...
NOTAM (SAINT-DIDIER-EN-VELAY + Terrain à proximité / FIR )




Chargement des NOTAMS...
CONTACT PREFECTURE 43


Avertissement : Les données mises à disposition sont indicatives. Oxygène Drone ne pourra être tenu responsable de dégâts causés aux biens et aux personnes.